createdAt,value
2017-11-09T00:00:16.183Z,24.34
2017-11-09T00:01:16.173Z,24.34
2017-11-09T00:02:15.814Z,24.43
2017-11-09T00:03:16.132Z,24.34
2017-11-09T00:04:16.127Z,24.43
2017-11-09T00:05:15.764Z,24.72
2017-11-09T00:06:16.083Z,24.53
2017-11-09T00:07:16.065Z,24.43
2017-11-09T00:08:15.714Z,24.72
2017-11-09T00:09:16.026Z,24.81
2017-11-09T00:10:16.009Z,24.43
2017-11-09T00:11:15.999Z,24.43
2017-11-09T00:12:15.978Z,24.53
2017-11-09T00:13:15.967Z,24.34
2017-11-09T00:14:15.604Z,24.43
2017-11-09T00:15:15.584Z,23.86
2017-11-09T00:16:15.569Z,23.77
2017-11-09T00:17:15.548Z,23.58
2017-11-09T00:18:15.877Z,23.77
2017-11-09T00:19:15.513Z,23.67
2017-11-09T00:20:15.498Z,23.39
2017-11-09T00:21:15.479Z,23.1
2017-11-09T00:22:15.462Z,23.39
2017-11-09T00:23:15.779Z,23.39
2017-11-09T00:24:15.428Z,23.39
2017-11-09T00:25:15.740Z,23.39
2017-11-09T00:26:15.390Z,23.2
2017-11-09T00:27:15.707Z,23.39
2017-11-09T00:28:15.357Z,23.29
2017-11-09T00:29:15.673Z,23.29
2017-11-09T00:30:15.660Z,22.91
2017-11-09T00:31:15.632Z,23
2017-11-09T00:32:15.623Z,23
2017-11-09T00:33:15.625Z,22.72
2017-11-09T00:34:15.586Z,22.63
2017-11-09T00:35:15.225Z,22.63
2017-11-09T00:36:15.543Z,22.72
2017-11-09T00:37:15.195Z,22.81
2017-11-09T00:38:15.511Z,22.72
2017-11-09T00:39:15.493Z,22.63
2017-11-09T00:40:15.477Z,23
2017-11-09T00:41:15.463Z,22.34
2017-11-09T00:42:15.438Z,22.34
2017-11-09T00:43:15.425Z,22.53
2017-11-09T00:44:15.070Z,22.25
2017-11-09T00:45:15.394Z,21.96
2017-11-09T00:46:15.032Z,21.96
2017-11-09T00:47:15.015Z,21.86
2017-11-09T00:48:14.998Z,21.67
2017-11-09T00:49:15.319Z,21.67
2017-11-09T00:50:14.962Z,21.39
2017-11-09T00:51:14.957Z,21.86
2017-11-09T00:52:14.925Z,21.3
2017-11-09T00:53:14.906Z,21.3
2017-11-09T00:54:15.224Z,21.11
2017-11-09T00:55:15.206Z,20.92
2017-11-09T00:56:14.857Z,21.2
2017-11-09T00:57:14.836Z,21.01
2017-11-09T00:58:15.158Z,21.01
2017-11-09T00:59:15.137Z,21.01
2017-11-09T01:00:15.118Z,20.82
2017-11-09T01:01:15.101Z,20.82
2017-11-09T01:02:15.081Z,21.01
2017-11-09T01:03:14.732Z,21.2
2017-11-09T01:04:14.712Z,20.63
2017-11-09T01:05:14.691Z,20.73
2017-11-09T01:06:14.777Z,20.63
2017-11-09T01:07:14.988Z,20.82
2017-11-09T01:08:14.636Z,20.82
2017-11-09T01:09:14.620Z,20.82
2017-11-09T01:10:14.942Z,20.82
2017-11-09T01:11:14.920Z,20.63
2017-11-09T01:12:14.906Z,20.82
2017-11-09T01:13:14.550Z,20.82
2017-11-09T01:14:14.869Z,20.63
2017-11-09T01:15:14.849Z,20.44
2017-11-09T01:16:14.934Z,20.06
2017-11-09T01:17:14.817Z,19.78
2017-11-09T01:18:14.805Z,19.68
2017-11-09T01:19:14.446Z,19.68
2017-11-09T01:20:14.769Z,19.96
2017-11-09T01:21:14.426Z,19.87
2017-11-09T01:22:14.724Z,19.49
2017-11-09T01:23:14.712Z,19.68
2017-11-09T01:24:14.353Z,19.78
2017-11-09T01:25:14.334Z,19.49
2017-11-09T01:26:14.781Z,19.49
2017-11-09T01:27:14.648Z,19.49
2017-11-09T01:28:14.620Z,19.2
2017-11-09T01:29:14.601Z,19.3
2017-11-09T01:30:14.580Z,19.39
2017-11-09T01:31:14.227Z,19.39
2017-11-09T01:32:14.548Z,19.01
2017-11-09T01:33:14.541Z,18.82
2017-11-09T01:34:14.510Z,18.35
2017-11-09T01:35:14.495Z,18.35
2017-11-09T01:36:14.489Z,18.44
2017-11-09T01:37:14.121Z,18.06
2017-11-09T01:38:14.104Z,17.87
2017-11-09T01:39:14.426Z,18.06
2017-11-09T01:40:14.072Z,17.96
2017-11-09T01:41:14.390Z,18.06
2017-11-09T01:42:14.370Z,17.4
2017-11-09T01:43:14.350Z,17.1
2017-11-09T01:44:14.005Z,17.29
2017-11-09T01:45:14.315Z,17.4
2017-11-09T01:46:13.962Z,17.2
2017-11-09T01:47:14.491Z,17.3
2017-11-09T01:48:13.926Z,17.02
2017-11-09T01:49:13.905Z,17.1
2017-11-09T01:50:14.224Z,16.91
2017-11-09T01:51:14.207Z,16.92
2017-11-09T01:52:13.851Z,16.35
2017-11-09T01:53:14.175Z,16.44
2017-11-09T01:54:13.828Z,16.06
2017-11-09T01:55:13.800Z,16.06
2017-11-09T01:56:14.116Z,16.35
2017-11-09T01:57:14.095Z,16.25
2017-11-09T01:58:13.746Z,16.25
2017-11-09T01:59:13.731Z,16.35
2017-11-09T02:00:13.706Z,15.59
2017-11-09T02:01:14.031Z,15.77
2017-11-09T02:02:14.018Z,15.3
2017-11-09T02:03:13.993Z,15.39
2017-11-09T02:04:13.635Z,15.39
2017-11-09T02:05:13.950Z,15.11
2017-11-09T02:06:13.932Z,15.48
2017-11-09T02:07:13.916Z,14.82
2017-11-09T02:08:13.896Z,14.92
2017-11-09T02:09:13.884Z,15.01
2017-11-09T02:10:13.860Z,15.02
2017-11-09T02:11:13.844Z,14.73
2017-11-09T02:12:13.491Z,14.45
2017-11-09T02:13:13.471Z,14.35
2017-11-09T02:14:13.785Z,14.35
2017-11-09T02:15:13.780Z,14.92
2017-11-09T02:16:13.754Z,14.44
2017-11-09T02:17:13.737Z,14.44
2017-11-09T02:18:13.721Z,14.73
2017-11-09T02:19:13.701Z,14.73
2017-11-09T02:20:13.358Z,14.82
2017-11-09T02:21:13.669Z,14.82
2017-11-09T02:22:13.512Z,14.73
2017-11-09T02:23:13.635Z,14.63
2017-11-09T02:24:13.615Z,14.82
2017-11-09T02:25:13.255Z,14.15
2017-11-09T02:26:13.576Z,14.06
2017-11-09T02:27:13.662Z,14.44
2017-11-09T02:28:13.537Z,14.06
2017-11-09T02:29:13.521Z,14.15
2017-11-09T02:30:13.166Z,14.25
2017-11-09T02:31:13.478Z,14.35
2017-11-09T02:32:13.125Z,14.35
2017-11-09T02:33:13.445Z,13.78
2017-11-09T02:34:13.097Z,13.78
2017-11-09T02:35:13.072Z,13.96
2017-11-09T02:36:13.053Z,13.96
2017-11-09T02:37:13.376Z,13.96
2017-11-09T02:38:13.018Z,13.78
2017-11-09T02:39:13.340Z,13.96
2017-11-09T02:40:12.980Z,13.96
2017-11-09T02:41:12.966Z,13.96
2017-11-09T02:42:13.282Z,13.96
2017-11-09T02:43:13.266Z,13.78
2017-11-09T02:44:13.247Z,14.06
2017-11-09T02:45:13.238Z,13.96
2017-11-09T02:46:13.222Z,13.78
2017-11-09T02:47:12.853Z,13.59
2017-11-09T02:48:12.835Z,13.68
2017-11-09T02:49:13.156Z,13.4
2017-11-09T02:50:12.797Z,13.59
2017-11-09T02:51:13.116Z,13.59
2017-11-09T02:52:12.767Z,13.59
2017-11-09T02:53:13.080Z,13.3
2017-11-09T02:54:12.731Z,13.4
2017-11-09T02:55:13.044Z,13.5
2017-11-09T02:56:12.694Z,13.59
2017-11-09T02:57:13.015Z,13.3
2017-11-09T02:58:12.989Z,13.59
2017-11-09T02:59:12.976Z,13.59
2017-11-09T03:00:12.622Z,13.4
2017-11-09T03:01:12.938Z,13.59
2017-11-09T03:02:12.930Z,13.4
2017-11-09T03:03:12.903Z,13.49
2017-11-09T03:04:12.884Z,13.78
2017-11-09T03:05:12.868Z,13.68
2017-11-09T03:06:12.878Z,13.78
2017-11-09T03:07:12.829Z,13.68
2017-11-09T03:08:12.476Z,13.68
2017-11-09T03:09:12.791Z,13.4
2017-11-09T03:10:12.438Z,13.78
2017-11-09T03:11:12.752Z,13.59
2017-11-09T03:12:12.732Z,13.59
2017-11-09T03:13:12.728Z,13.3
2017-11-09T03:14:12.700Z,13.4
2017-11-09T03:15:12.681Z,13.49
2017-11-09T03:16:12.325Z,13.4
2017-11-09T03:17:12.311Z,13.4
2017-11-09T03:18:12.627Z,13.4
2017-11-09T03:19:12.612Z,13.59
2017-11-09T03:20:12.620Z,13.68
2017-11-09T03:21:12.575Z,13.59
2017-11-09T03:22:12.562Z,13.49
2017-11-09T03:23:12.305Z,13.49
2017-11-09T03:24:12.553Z,13.59
2017-11-09T03:25:12.519Z,13.49
2017-11-09T03:26:12.479Z,13.68
2017-11-09T03:27:12.470Z,13.78
2017-11-09T03:28:12.451Z,13.49
2017-11-09T03:29:12.458Z,13.11
2017-11-09T03:30:12.080Z,13.02
2017-11-09T03:31:12.413Z,13.02
2017-11-09T03:32:12.375Z,13.78
2017-11-09T03:33:12.019Z,13.4
2017-11-09T03:34:12.002Z,13.59
2017-11-09T03:35:12.321Z,13.4
2017-11-09T03:36:12.299Z,13.68
2017-11-09T03:37:12.283Z,13.78
2017-11-09T03:38:12.281Z,13.68
2017-11-09T03:39:11.911Z,13.59
2017-11-09T03:40:12.237Z,13.4
2017-11-09T03:41:11.877Z,13.59
2017-11-09T03:42:12.195Z,13.4
2017-11-09T03:43:12.177Z,13.3
2017-11-09T03:44:12.160Z,13.3
2017-11-09T03:45:12.142Z,13.21
2017-11-09T03:46:11.786Z,13.3
2017-11-09T03:47:11.966Z,13.68
2017-11-09T03:48:12.083Z,13.87
2017-11-09T03:49:12.075Z,14.06
2017-11-09T03:50:11.711Z,13.87
2017-11-09T03:51:12.030Z,13.96
2017-11-09T03:52:11.679Z,13.59
2017-11-09T03:53:11.656Z,13.49
2017-11-09T03:54:11.975Z,13.4
2017-11-09T03:55:11.628Z,13.49
2017-11-09T03:56:11.601Z,13.59
2017-11-09T03:57:11.920Z,13.69
2017-11-09T03:58:11.573Z,13.68
2017-11-09T03:59:11.548Z,13.49
2017-11-09T04:00:11.872Z,13.59
2017-11-09T04:01:11.868Z,13.49
2017-11-09T04:02:11.837Z,13.3
2017-11-09T04:03:11.488Z,13.49
2017-11-09T04:04:11.458Z,13.4
2017-11-09T04:05:11.787Z,13.3
2017-11-09T04:06:11.764Z,13.49
2017-11-09T04:07:11.404Z,13.5
2017-11-09T04:08:11.386Z,13.49
2017-11-09T04:09:11.377Z,13.31
2017-11-09T04:10:11.688Z,13.3
2017-11-09T04:11:11.675Z,13.3
2017-11-09T04:12:11.653Z,13.49
2017-11-09T04:13:11.631Z,13.69
2017-11-09T04:14:11.277Z,13.5
2017-11-09T04:15:11.593Z,13.59
2017-11-09T04:16:11.576Z,13.68
2017-11-09T04:17:11.557Z,13.68
2017-11-09T04:18:11.541Z,13.68
2017-11-09T04:19:11.191Z,13.78
2017-11-09T04:20:11.514Z,13.96
2017-11-09T04:21:11.491Z,14.06
2017-11-09T04:22:11.465Z,13.59
2017-11-09T04:23:11.119Z,13.68
2017-11-09T04:24:11.431Z,13.78
2017-11-09T04:25:11.081Z,14.06
2017-11-09T04:26:11.395Z,13.78
2017-11-09T04:27:11.379Z,13.78
2017-11-09T04:28:11.358Z,13.78
2017-11-09T04:29:11.454Z,13.87
2017-11-09T04:30:11.343Z,13.78
2017-11-09T04:31:11.307Z,13.96
2017-11-09T04:32:11.289Z,13.96
2017-11-09T04:33:11.283Z,14.73
2017-11-09T04:34:10.914Z,14.54
2017-11-09T04:35:11.240Z,14.73
2017-11-09T04:36:10.879Z,14.54
2017-11-09T04:37:11.195Z,15.01
2017-11-09T04:38:11.179Z,14.73
2017-11-09T04:39:11.263Z,15.11
2017-11-09T04:40:11.144Z,15.2
2017-11-09T04:41:10.798Z,15.01
2017-11-09T04:42:11.104Z,15.2
2017-11-09T04:43:10.753Z,15.77
2017-11-09T04:44:10.731Z,16.15
2017-11-09T04:45:11.054Z,16.25
2017-11-09T04:46:11.034Z,16.25
2017-11-09T04:47:10.680Z,16.35
2017-11-09T04:48:10.995Z,16.63
2017-11-09T04:49:10.983Z,16.35
2017-11-09T04:50:10.628Z,16.15
2017-11-09T04:51:10.948Z,16.15
2017-11-09T04:52:10.923Z,16.44
2017-11-09T04:53:10.579Z,16.15
2017-11-09T04:54:10.556Z,16.35
2017-11-09T04:55:10.878Z,16.25
2017-11-09T04:56:10.855Z,16.44
2017-11-09T04:57:10.503Z,16.15
2017-11-09T04:58:10.818Z,16.15
2017-11-09T04:59:10.466Z,16.06
2017-11-09T05:00:10.782Z,16.25
2017-11-09T05:01:10.764Z,16.35
2017-11-09T05:02:10.742Z,16.25
2017-11-09T05:03:10.387Z,15.87
2017-11-09T05:04:10.717Z,16.15
2017-11-09T05:05:10.354Z,16.53
2017-11-09T05:06:10.343Z,16.25
2017-11-09T05:07:10.665Z,16.44
2017-11-09T05:08:10.308Z,16.06
2017-11-09T05:09:10.644Z,16.25
2017-11-09T05:10:10.262Z,16.25
2017-11-09T05:11:10.582Z,16.15
2017-11-09T05:12:10.225Z,16.15
2017-11-09T05:13:10.547Z,16.15
2017-11-09T05:14:10.530Z,15.77
2017-11-09T05:15:10.508Z,16.06
2017-11-09T05:16:10.506Z,16.06
2017-11-09T05:17:10.483Z,16.06
2017-11-09T05:18:10.476Z,16.15
2017-11-09T05:19:10.434Z,16.06
2017-11-09T05:20:10.083Z,16.15
2017-11-09T05:21:10.066Z,16.15
2017-11-09T05:22:10.379Z,16.25
2017-11-09T05:23:10.361Z,16.15
2017-11-09T05:24:10.008Z,16.25
2017-11-09T05:25:10.005Z,16.15
2017-11-09T05:26:10.308Z,16.35
2017-11-09T05:27:09.955Z,16.35
2017-11-09T05:28:09.938Z,16.06
2017-11-09T05:29:09.925Z,16.53
2017-11-09T05:30:10.236Z,16.15
2017-11-09T05:31:10.221Z,16.25
2017-11-09T05:32:10.201Z,16.25
2017-11-09T05:33:10.179Z,16.35
2017-11-09T05:34:09.829Z,16.54
2017-11-09T05:35:10.244Z,16.25
2017-11-09T05:36:10.138Z,16.25
2017-11-09T05:37:10.106Z,16.35
2017-11-09T05:38:09.757Z,16.35
2017-11-09T05:39:09.738Z,16.35
2017-11-09T05:40:10.050Z,16.25
2017-11-09T05:41:10.038Z,16.25
2017-11-09T05:42:10.013Z,16.16
2017-11-09T05:43:10.002Z,16.45
2017-11-09T05:44:10.001Z,16.16
2017-11-09T05:45:09.740Z,16.35
2017-11-09T05:46:09.608Z,16.54
2017-11-09T05:47:10.129Z,16.73
2017-11-09T05:48:09.908Z,16.64
2017-11-09T05:49:09.896Z,16.45
2017-11-09T05:50:09.877Z,16.45
2017-11-09T05:51:09.857Z,16.73
2017-11-09T05:52:09.499Z,16.45
2017-11-09T05:53:09.484Z,16.83
2017-11-09T05:54:09.800Z,16.64
2017-11-09T05:55:09.787Z,16.92
2017-11-09T05:56:09.765Z,16.54
2017-11-09T05:57:09.755Z,16.73
2017-11-09T05:58:09.752Z,16.73
2017-11-09T05:59:09.728Z,16.64
2017-11-09T06:00:09.456Z,16.64
2017-11-09T06:01:09.340Z,16.73
2017-11-09T06:02:09.658Z,16.83
2017-11-09T06:03:09.639Z,17.21
2017-11-09T06:04:09.289Z,17.3
2017-11-09T06:05:09.632Z,16.92
2017-11-09T06:06:09.587Z,17.21
2017-11-09T06:07:09.233Z,17.11
2017-11-09T06:08:09.549Z,17.49
2017-11-09T06:09:09.536Z,17.11
2017-11-09T06:10:09.634Z,17.4
2017-11-09T06:11:09.501Z,17.78
2017-11-09T06:12:09.486Z,17.78
2017-11-09T06:13:09.132Z,17.87
2017-11-09T06:14:09.441Z,17.78
2017-11-09T06:15:09.090Z,18.06
2017-11-09T06:16:09.447Z,18.26
2017-11-09T06:17:09.388Z,18.35
2017-11-09T06:18:09.372Z,18.63
2017-11-09T06:19:09.390Z,18.92
2017-11-09T06:20:08.999Z,19.11
2017-11-09T06:21:09.317Z,18.92
2017-11-09T06:22:09.302Z,18.82
2017-11-09T06:23:09.282Z,18.92
2017-11-09T06:24:08.927Z,19.3
2017-11-09T06:25:08.909Z,19.2
2017-11-09T06:26:08.890Z,19.39
2017-11-09T06:27:09.211Z,19.3
2017-11-09T06:28:08.861Z,19.01
2017-11-09T06:29:09.172Z,19.49
2017-11-09T06:30:09.157Z,19.2
2017-11-09T06:31:09.142Z,19.2
2017-11-09T06:32:09.137Z,19.2
2017-11-09T06:33:08.766Z,19.59
2017-11-09T06:34:08.749Z,19.78
2017-11-09T06:35:09.077Z,20.34
2017-11-09T06:36:09.047Z,20.73
2017-11-09T06:37:09.034Z,20.53
2017-11-09T06:38:08.676Z,20.53
2017-11-09T06:39:08.667Z,20.44
2017-11-09T06:40:08.637Z,20.82
2017-11-09T06:41:09.061Z,20.44
2017-11-09T06:42:08.603Z,20.44
2017-11-09T06:43:08.922Z,19.96
2017-11-09T06:44:08.905Z,19.76
2017-11-09T06:45:08.551Z,19.59
2017-11-09T06:46:08.879Z,19.3
2017-11-09T06:47:08.848Z,19.68
2017-11-09T06:48:08.495Z,19.49
2017-11-09T06:49:08.479Z,19.59
2017-11-09T06:50:08.796Z,19.59
2017-11-09T06:51:08.875Z,19.39
2017-11-09T06:52:08.431Z,19.2
2017-11-09T06:53:08.747Z,19.2
2017-11-09T06:54:08.729Z,19.39
2017-11-09T06:55:08.702Z,19.2
2017-11-09T06:56:08.691Z,19.3
2017-11-09T06:57:08.674Z,19.11
2017-11-09T06:58:08.315Z,19.2
2017-11-09T06:59:08.636Z,18.73
2017-11-09T07:00:08.630Z,18.73
2017-11-09T07:01:08.600Z,19.2
2017-11-09T07:02:08.590Z,19.2
2017-11-09T07:03:08.225Z,19.39
2017-11-09T07:04:08.214Z,19.68
2017-11-09T07:05:08.527Z,19.59
2017-11-09T07:06:08.512Z,19.2
2017-11-09T07:07:08.493Z,19.2
2017-11-09T07:08:08.133Z,19.68
2017-11-09T07:09:08.452Z,19.59
2017-11-09T07:10:08.431Z,19.39
2017-11-09T07:11:08.080Z,20.06
2017-11-09T07:12:08.400Z,20.53
2017-11-09T07:13:08.380Z,20.53
2017-11-09T07:14:08.382Z,20.63
2017-11-09T07:15:08.007Z,20.63
2017-11-09T07:16:07.991Z,20.72
2017-11-09T07:17:07.970Z,20.34
2017-11-09T07:18:08.286Z,20.44
2017-11-09T07:19:08.274Z,20.34
2017-11-09T07:20:08.254Z,20.06
2017-11-09T07:21:07.893Z,19.59
2017-11-09T07:22:08.233Z,20.06
2017-11-09T07:23:08.205Z,20.63
2017-11-09T07:24:08.175Z,20.53
2017-11-09T07:25:08.160Z,20.34
2017-11-09T07:26:07.813Z,20.24
2017-11-09T07:27:07.789Z,20.73
2017-11-09T07:28:07.769Z,20.63
2017-11-09T07:29:07.752Z,20.82
2017-11-09T07:30:07.730Z,20.72
2017-11-09T07:31:07.715Z,20.63
2017-11-09T07:32:07.696Z,20.63
2017-11-09T07:33:07.681Z,20.53
2017-11-09T07:34:07.995Z,20.92
2017-11-09T07:35:07.980Z,21.3
2017-11-09T07:36:07.959Z,22.25
2017-11-09T07:37:07.956Z,22.25
2017-11-09T07:38:07.588Z,21.67
2017-11-09T07:39:07.904Z,22.06
2017-11-09T07:40:07.549Z,22.63
2017-11-09T07:41:07.533Z,22.44
2017-11-09T07:42:07.850Z,22.34
2017-11-09T07:43:07.840Z,21.58
2017-11-09T07:44:07.817Z,21.48
2017-11-09T07:45:07.799Z,21.86
2017-11-09T07:46:07.786Z,21.48
2017-11-09T07:47:07.824Z,21.48
2017-11-09T07:48:07.413Z,22.06
2017-11-09T07:49:07.393Z,21.86
2017-11-09T07:50:07.710Z,22.25
2017-11-09T07:51:07.698Z,22.06
2017-11-09T07:52:07.672Z,22.34
2017-11-09T07:53:07.652Z,22.34
2017-11-09T07:54:07.633Z,22.63
2017-11-09T07:55:07.276Z,22.44
2017-11-09T07:56:07.594Z,22.25
2017-11-09T07:57:07.577Z,22.06
2017-11-09T07:58:07.274Z,21.96
2017-11-09T07:59:07.226Z,22.72
2017-11-09T08:00:07.534Z,22.34
2017-11-09T08:01:07.175Z,22.25
2017-11-09T08:02:07.155Z,22.72
2017-11-09T08:03:07.143Z,22.91
2017-11-09T08:04:07.468Z,23.29
2017-11-09T08:05:07.098Z,23.48
2017-11-09T08:06:07.421Z,23.2
2017-11-09T08:07:07.064Z,23.39
2017-11-09T08:08:07.398Z,23
2017-11-09T08:09:07.026Z,23.29
2017-11-09T08:10:07.010Z,24.43
2017-11-09T08:11:06.998Z,24.81
2017-11-09T08:12:07.312Z,24.24
2017-11-09T08:13:07.309Z,24.24
2017-11-09T08:14:07.293Z,25.2
2017-11-09T08:15:06.923Z,24.91
2017-11-09T08:16:07.236Z,24.43
2017-11-09T08:17:07.220Z,24.91
2017-11-09T08:18:06.870Z,24.53
2017-11-09T08:19:06.849Z,24.53
2017-11-09T08:20:07.169Z,24.72
2017-11-09T08:21:07.146Z,24.91
2017-11-09T08:22:07.131Z,25.48
2017-11-09T08:23:07.116Z,24.81
2017-11-09T08:24:07.096Z,24.81
2017-11-09T08:25:06.744Z,26.34
2017-11-09T08:26:06.719Z,26.24
2017-11-09T08:27:07.037Z,26.9
2017-11-09T08:28:07.021Z,26.62
2017-11-09T08:29:07.010Z,26.81
2017-11-09T08:30:06.988Z,26.72
2017-11-09T08:31:06.634Z,26.81
2017-11-09T08:32:06.617Z,27.76
2017-11-09T08:33:06.596Z,27.09
2017-11-09T08:34:06.585Z,27.28
2017-11-09T08:35:06.562Z,27.09
2017-11-09T08:36:06.884Z,28.52
2017-11-09T08:37:06.869Z,28.81
2017-11-09T08:38:06.843Z,29.75
2017-11-09T08:39:06.829Z,29.28
2017-11-09T08:40:06.816Z,29.47
2017-11-09T08:41:06.798Z,29.57
2017-11-09T08:42:06.773Z,30.33
2017-11-09T08:43:06.420Z,31.39
2017-11-09T08:44:06.756Z,31.95
2017-11-09T08:45:06.725Z,31.37
2017-11-09T08:46:06.374Z,32.15
2017-11-09T08:47:06.788Z,32.53
2017-11-09T08:48:06.336Z,32.24
2017-11-09T08:49:06.651Z,32.43
2017-11-09T08:50:06.295Z,32.91
2017-11-09T08:51:06.281Z,32.91
2017-11-09T08:52:06.601Z,33.39
2017-11-09T08:53:06.580Z,34.81
2017-11-09T08:54:06.578Z,34.34
2017-11-09T08:55:06.208Z,32.91
2017-11-09T08:56:06.529Z,34.81
2017-11-09T08:57:06.522Z,38.71
2017-11-09T08:58:06.158Z,39.48
2017-11-09T08:59:06.137Z,39.38
2017-11-09T09:00:06.459Z,42.9
2017-11-09T09:01:06.445Z,42.52
2017-11-09T09:02:06.093Z,41.85
2017-11-09T09:03:06.432Z,42.33
2017-11-09T09:04:06.054Z,44.04
2017-11-09T09:05:06.384Z,44.92
2017-11-09T09:06:06.018Z,47.2
2017-11-09T09:07:06.342Z,52.72
2017-11-09T09:08:06.321Z,56.05
2017-11-09T09:09:05.970Z,58.15
2017-11-09T09:10:06.295Z,59.1
2017-11-09T09:11:06.269Z,57.29
2017-11-09T09:12:06.252Z,59.77
2017-11-09T09:13:05.900Z,59.01
2017-11-09T09:14:06.216Z,61.48
2017-11-09T09:15:05.866Z,60.91
2017-11-09T09:16:06.192Z,62.24
2017-11-09T09:17:06.175Z,67.57
2017-11-09T09:18:05.820Z,66.62
2017-11-09T09:19:05.797Z,66.62
2017-11-09T09:20:06.122Z,66.72
2017-11-09T09:21:06.150Z,64.81
2017-11-09T09:22:06.086Z,67.29
2017-11-09T09:23:06.073Z,68.52
2017-11-09T09:24:05.721Z,66.72
2017-11-09T09:25:05.708Z,66.05
2017-11-09T09:26:06.031Z,65.42
2017-11-09T09:27:05.667Z,66.56
2017-11-09T09:28:05.993Z,70.65
2017-11-09T09:29:05.976Z,74.94
2017-11-09T09:30:05.955Z,76.84
2017-11-09T09:31:05.989Z,82.93
2017-11-09T09:32:05.936Z,81.98
2017-11-09T09:33:05.576Z,85.51
2017-11-09T09:34:05.895Z,87.6
2017-11-09T09:35:05.884Z,82.18
2017-11-09T09:36:05.533Z,80.36
2017-11-09T09:37:05.513Z,79.7
2017-11-09T09:38:05.828Z,83.41
2017-11-09T09:39:05.481Z,84.17
2017-11-09T09:40:05.809Z,86.18
2017-11-09T09:41:05.786Z,83.8
2017-11-09T09:42:05.774Z,84.08
2017-11-09T09:43:05.756Z,83.51
2017-11-09T09:44:05.740Z,83.89
2017-11-09T09:45:05.389Z,83.7
2017-11-09T09:46:05.717Z,81.98
2017-11-09T09:47:05.360Z,83.98
2017-11-09T09:48:05.676Z,83.8
2017-11-09T09:49:05.324Z,83.13
2017-11-09T09:50:05.307Z,85.13
2017-11-09T09:51:05.636Z,86.46
2017-11-09T09:52:05.620Z,85.51
2017-11-09T09:53:05.258Z,83.8
2017-11-09T09:54:05.249Z,84.46
2017-11-09T09:55:05.565Z,85.7
2017-11-09T09:56:05.551Z,87.18
2017-11-09T09:57:05.538Z,87.85
2017-11-09T09:58:05.517Z,84.99
2017-11-09T09:59:05.167Z,85.6
2017-11-09T10:00:05.499Z,85.51
2017-11-09T10:01:05.470Z,85.8
2017-11-09T10:02:05.115Z,86.36
2017-11-09T10:03:05.436Z,84.94
2017-11-09T10:04:05.417Z,82.65
2017-11-09T10:05:05.409Z,85.03
2017-11-09T10:06:05.393Z,88.46
2017-11-09T10:07:05.370Z,85.41
2017-11-09T10:08:05.358Z,86.84
2017-11-09T10:09:05.002Z,85.03
2017-11-09T10:10:04.991Z,85.89
2017-11-09T10:11:04.971Z,88.84
2017-11-09T10:12:05.292Z,85.6
2017-11-09T10:13:05.274Z,85.22
2017-11-09T10:14:04.924Z,83.03
2017-11-09T10:15:04.911Z,83.13
2017-11-09T10:16:04.889Z,83.03
2017-11-09T10:17:04.877Z,86.18
2017-11-09T10:18:05.299Z,88.18
2017-11-09T10:19:05.177Z,88.65
2017-11-09T10:20:05.160Z,87.03
2017-11-09T10:21:05.148Z,86.27
2017-11-09T10:22:05.139Z,85.56
2017-11-09T10:23:05.114Z,83.51
2017-11-09T10:24:05.100Z,84.89
2017-11-09T10:25:04.753Z,86.04
2017-11-09T10:26:05.069Z,84.56
2017-11-09T10:27:05.055Z,84.94
2017-11-09T10:28:04.698Z,83.7
2017-11-09T10:29:05.026Z,81.76
2017-11-09T10:30:05.020Z,83.32
2017-11-09T10:31:04.655Z,85.7
2017-11-09T10:32:04.964Z,84.36
2017-11-09T10:33:04.949Z,82.46
2017-11-09T10:34:04.595Z,82.84
2017-11-09T10:35:04.928Z,83.75
2017-11-09T10:36:04.901Z,84.46
2017-11-09T10:37:04.548Z,85.13
2017-11-09T10:38:04.872Z,86.75
2017-11-09T10:39:04.855Z,87.03
2017-11-09T10:40:04.505Z,87.79
2017-11-09T10:41:04.823Z,89.51
2017-11-09T10:42:05.063Z,87.98
2017-11-09T10:43:05.044Z,90.08
2017-11-09T10:44:04.438Z,87.89
2017-11-09T10:45:04.757Z,86.46
2017-11-09T10:46:04.745Z,88.56
2017-11-09T10:47:04.385Z,86.94
2017-11-09T10:48:04.469Z,90.27
2017-11-09T10:49:04.703Z,89.37
2017-11-09T10:50:04.672Z,89.37
2017-11-09T10:51:04.655Z,87.65
2017-11-09T10:52:04.643Z,86.51
2017-11-09T10:53:04.291Z,91.22
2017-11-09T10:54:04.612Z,91.84
2017-11-09T10:55:04.265Z,92.51
2017-11-09T10:56:04.595Z,91.6
2017-11-09T10:57:04.566Z,93.46
2017-11-09T10:58:04.338Z,93.51
2017-11-09T10:59:04.534Z,95.27
2017-11-09T11:00:04.513Z,94.37
2017-11-09T11:01:04.495Z,94.17
2017-11-09T11:02:04.490Z,94.65
2017-11-09T11:03:04.124Z,90.17
2017-11-09T11:04:04.440Z,93.98
2017-11-09T11:05:04.427Z,94.37
2017-11-09T11:06:04.416Z,94.37
2017-11-09T11:07:04.396Z,95.6
2017-11-09T11:08:04.043Z,96.55
2017-11-09T11:09:04.024Z,97.22
2017-11-09T11:10:04.392Z,96.55
2017-11-09T11:11:04.329Z,99.89
2017-11-09T11:12:04.310Z,99.99
2017-11-09T11:13:03.962Z,99.99
2017-11-09T11:14:04.277Z,99.99
2017-11-09T11:15:04.264Z,99.99
2017-11-09T11:16:04.244Z,99.99
2017-11-09T11:17:03.901Z,99.99
2017-11-09T11:18:04.219Z,99.99
2017-11-09T11:19:04.207Z,99.99
2017-11-09T11:20:04.189Z,99.99
2017-11-09T11:21:03.835Z,99.99
2017-11-09T11:22:04.149Z,99.99
2017-11-09T11:23:04.140Z,99.99
2017-11-09T11:24:04.111Z,99.99
2017-11-09T11:25:03.763Z,99.99
2017-11-09T11:26:03.744Z,99.99
2017-11-09T11:27:03.743Z,99.99
2017-11-09T11:28:03.710Z,99.99
2017-11-09T11:29:04.028Z,99.99
2017-11-09T11:30:03.681Z,99.99
2017-11-09T11:31:03.659Z,99.99
2017-11-09T11:32:03.981Z,99.99
2017-11-09T11:33:03.976Z,99.99
2017-11-09T11:34:04.049Z,99.99
2017-11-09T11:35:03.591Z,99.99
2017-11-09T11:36:03.574Z,99.99
2017-11-09T11:37:03.903Z,99.99
2017-11-09T11:38:03.881Z,99.99
2017-11-09T11:39:03.525Z,99.99
2017-11-09T11:40:03.871Z,99.99
2017-11-09T11:41:03.846Z,99.99
2017-11-09T11:42:03.816Z,99.99
2017-11-09T11:43:03.795Z,99.99
2017-11-09T11:44:03.837Z,99.99
2017-11-09T11:45:03.434Z,99.99
2017-11-09T11:46:03.406Z,99.99
2017-11-09T11:47:03.389Z,99.99
2017-11-09T11:48:03.575Z,99.99
2017-11-09T11:49:03.457Z,99.99
2017-11-09T11:50:03.349Z,99.99
2017-11-09T11:51:03.323Z,99.99
2017-11-09T11:52:03.648Z,99.99
2017-11-09T11:53:03.283Z,99.99
2017-11-09T11:54:03.669Z,99.99
2017-11-09T11:55:03.249Z,99.99
2017-11-09T11:56:03.574Z,99.99
2017-11-09T11:57:03.220Z,99.99
2017-11-09T11:58:03.539Z,99.99
2017-11-09T11:59:03.534Z,99.99
2017-11-09T12:00:03.512Z,99.99
2017-11-09T12:01:03.483Z,99.99
2017-11-09T12:02:03.129Z,99.99
2017-11-09T12:03:03.117Z,99.99
2017-11-09T12:04:03.431Z,99.99
2017-11-09T12:05:03.414Z,99.99
2017-11-09T12:06:03.399Z,99.99
2017-11-09T12:07:03.382Z,99.99
2017-11-09T12:08:03.364Z,99.99
2017-11-09T12:09:03.013Z,99.99
2017-11-09T12:10:03.338Z,99.99
2017-11-09T12:11:03.323Z,99.99
2017-11-09T12:12:02.964Z,99.99
2017-11-09T12:13:03.282Z,99.99
2017-11-09T12:14:03.262Z,99.99
2017-11-09T12:15:02.909Z,99.99
2017-11-09T12:16:03.245Z,99.99
2017-11-09T12:17:03.218Z,99.99
2017-11-09T12:18:02.862Z,99.99
2017-11-09T12:19:02.853Z,99.99
2017-11-09T12:20:03.168Z,99.99
2017-11-09T12:21:03.159Z,99.99
2017-11-09T12:22:02.796Z,99.99
2017-11-09T12:23:03.113Z,99.99
2017-11-09T12:24:03.143Z,99.99
2017-11-09T12:25:03.082Z,99.99
2017-11-09T12:26:03.084Z,99.99
2017-11-09T12:27:03.052Z,99.99
2017-11-09T12:28:03.036Z,99.99
2017-11-09T12:29:03.016Z,99.99
2017-11-09T12:30:03.004Z,99.99
2017-11-09T12:31:02.645Z,99.99
2017-11-09T12:32:02.968Z,99.99
2017-11-09T12:33:02.950Z,99.99
2017-11-09T12:34:02.937Z,99.99
2017-11-09T12:35:02.944Z,99.99
2017-11-09T12:36:02.565Z,99.99
2017-11-09T12:37:02.553Z,99.99
2017-11-09T12:38:02.532Z,99.99
2017-11-09T12:39:02.858Z,99.99
2017-11-09T12:40:02.843Z,99.99
2017-11-09T12:41:02.485Z,99.99
2017-11-09T12:42:02.472Z,99.99
2017-11-09T12:43:02.791Z,99.99
2017-11-09T12:44:02.437Z,99.99
2017-11-09T12:45:02.769Z,99.99
2017-11-09T12:46:02.407Z,99.99
2017-11-09T12:47:02.725Z,99.99
2017-11-09T12:48:02.716Z,99.99
2017-11-09T12:49:02.360Z,99.99
2017-11-09T12:50:02.682Z,99.99
2017-11-09T12:51:02.663Z,99.99
2017-11-09T12:52:02.656Z,99.99
2017-11-09T12:53:02.646Z,99.99
2017-11-09T12:54:02.624Z,99.99
2017-11-09T12:55:02.609Z,99.99